createdAt,value
2023-06-21T00:00:33.947Z,100483.72
2023-06-21T00:03:03.409Z,100478.00
2023-06-21T00:05:33.237Z,100485.16
2023-06-21T00:08:01.837Z,100483.75
2023-06-21T00:10:31.512Z,100491.59
2023-06-21T00:13:00.865Z,100479.63
2023-06-21T00:15:29.394Z,100481.63
2023-06-21T00:17:58.555Z,100483.25
2023-06-21T00:20:27.354Z,100485.56
2023-06-21T00:23:10.077Z,100478.03
2023-06-21T00:25:44.321Z,100478.78
2023-06-21T00:28:13.705Z,100472.38
2023-06-21T00:30:43.510Z,100473.22
2023-06-21T00:33:13.223Z,100470.44
2023-06-21T00:35:43.381Z,100475.06
2023-06-21T00:38:15.704Z,100477.81
2023-06-21T00:41:03.134Z,100466.38
2023-06-21T00:43:31.923Z,100468.66
2023-06-21T00:46:02.269Z,100461.00
2023-06-21T00:48:31.079Z,100469.22
2023-06-21T00:51:01.427Z,100463.94
2023-06-21T00:53:32.982Z,100455.75
2023-06-21T00:56:02.898Z,100459.97
2023-06-21T00:58:33.542Z,100460.16
2023-06-21T01:01:03.020Z,100459.78
2023-06-21T01:03:31.796Z,100461.31
2023-06-21T01:06:07.739Z,100468.78
2023-06-21T01:09:17.721Z,100469.38
2023-06-21T01:12:01.226Z,100469.16
2023-06-21T01:14:46.720Z,100467.81
2023-06-21T01:17:17.453Z,100471.47
2023-06-21T01:19:55.193Z,100480.75
2023-06-21T01:22:23.692Z,100477.47
2023-06-21T01:24:52.006Z,100471.22
2023-06-21T01:27:39.036Z,100470.47
2023-06-21T01:30:10.849Z,100471.63
2023-06-21T01:32:42.036Z,100480.34
2023-06-21T01:35:11.681Z,100487.25
2023-06-21T01:37:44.416Z,100491.63
2023-06-21T01:40:13.987Z,100481.38
2023-06-21T01:42:43.615Z,100487.25
2023-06-21T01:45:13.199Z,100486.59
2023-06-21T01:47:45.037Z,100489.34
2023-06-21T01:50:16.583Z,100497.75
2023-06-21T01:52:48.192Z,100491.25
2023-06-21T01:55:17.368Z,100491.94
2023-06-21T01:57:48.159Z,100500.41
2023-06-21T02:00:20.146Z,100503.69
2023-06-21T02:03:04.497Z,100504.44
2023-06-21T02:05:35.613Z,100508.13
2023-06-21T02:08:10.015Z,100515.00
2023-06-21T02:10:39.242Z,100519.13
2023-06-21T02:13:11.119Z,100514.75
2023-06-21T02:15:40.229Z,100518.94
2023-06-21T02:18:10.996Z,100527.97
2023-06-21T02:20:40.249Z,100530.66
2023-06-21T02:23:09.456Z,100531.22
2023-06-21T02:25:38.658Z,100533.41
2023-06-21T02:28:07.732Z,100531.63
2023-06-21T02:30:38.061Z,100528.16
2023-06-21T02:33:06.980Z,100525.44
2023-06-21T02:35:36.543Z,100528.47
2023-06-21T02:38:08.139Z,100525.72
2023-06-21T02:40:36.795Z,100531.03
2023-06-21T02:43:06.091Z,100523.41
2023-06-21T02:45:34.971Z,100512.81
2023-06-21T02:48:03.780Z,100517.63
2023-06-21T02:50:32.382Z,100511.88
2023-06-21T02:53:00.845Z,100513.78
2023-06-21T02:55:29.782Z,100509.47
2023-06-21T02:57:58.100Z,100512.75
2023-06-21T03:00:33.806Z,100511.06
2023-06-21T03:03:04.470Z,100514.13
2023-06-21T03:05:35.772Z,100517.84
2023-06-21T03:08:06.174Z,100522.06
2023-06-21T03:10:35.783Z,100521.00
2023-06-21T03:13:06.156Z,100525.34
2023-06-21T03:15:35.772Z,100507.91
2023-06-21T03:18:05.494Z,100509.59
2023-06-21T03:20:34.540Z,100503.34
2023-06-21T03:23:05.891Z,100501.25
2023-06-21T03:25:36.655Z,100502.56
2023-06-21T03:28:33.505Z,100500.81
2023-06-21T03:31:03.712Z,100497.03
2023-06-21T03:33:33.969Z,100498.81
2023-06-21T03:36:05.663Z,100515.50
2023-06-21T03:38:35.706Z,100508.41
2023-06-21T03:41:04.180Z,100517.50
2023-06-21T03:43:33.639Z,100524.75
2023-06-21T03:46:07.999Z,100526.78
2023-06-21T03:48:38.024Z,100522.94
2023-06-21T03:51:07.327Z,100533.28
2023-06-21T03:53:36.253Z,100530.25
2023-06-21T03:56:05.866Z,100524.16
2023-06-21T03:58:34.893Z,100517.97
2023-06-21T04:01:05.641Z,100528.81
2023-06-21T04:03:36.080Z,100525.22
2023-06-21T04:06:05.833Z,100523.09
2023-06-21T04:08:34.255Z,100531.88
2023-06-21T04:11:03.710Z,100541.16
2023-06-21T04:13:32.266Z,100532.78
2023-06-21T04:16:01.052Z,100523.84
2023-06-21T04:18:29.704Z,100533.56
2023-06-21T04:21:00.441Z,100527.06
2023-06-21T04:23:30.651Z,100524.38
2023-06-21T04:25:59.836Z,100518.19
2023-06-21T04:28:28.555Z,100523.72
2023-06-21T04:30:57.963Z,100522.59
2023-06-21T04:33:26.707Z,100524.09
2023-06-21T04:35:56.059Z,100524.63
2023-06-21T04:38:25.028Z,100529.81
2023-06-21T04:40:54.513Z,100524.94
2023-06-21T04:43:26.846Z,100517.78
2023-06-21T04:45:57.140Z,100516.94
2023-06-21T04:48:27.678Z,100513.31
2023-06-21T04:50:57.090Z,100518.16
2023-06-21T04:53:31.067Z,100517.03
2023-06-21T04:56:01.611Z,100513.00
2023-06-21T04:58:37.474Z,100521.09
2023-06-21T05:01:10.821Z,100526.94
2023-06-21T05:03:43.859Z,100527.13
2023-06-21T05:06:17.327Z,100517.84
2023-06-21T05:08:50.074Z,100521.13
2023-06-21T05:11:25.574Z,100525.84
2023-06-21T05:13:54.210Z,100523.13
2023-06-21T05:16:25.655Z,100521.00
2023-06-21T05:18:55.998Z,100524.81
2023-06-21T05:21:25.053Z,100516.03
2023-06-21T05:23:54.623Z,100522.34
2023-06-21T05:26:24.202Z,100523.09
2023-06-21T05:28:54.441Z,100513.59
2023-06-21T05:31:27.146Z,100512.94
2023-06-21T05:33:58.070Z,100507.47
2023-06-21T05:36:28.220Z,100515.44
2023-06-21T05:38:57.265Z,100510.34
2023-06-21T05:41:26.480Z,100507.22
2023-06-21T05:43:55.901Z,100511.69
2023-06-21T05:46:25.156Z,100509.91
2023-06-21T05:48:58.409Z,100508.56
2023-06-21T05:51:29.818Z,100510.00
2023-06-21T05:53:58.365Z,100509.81
2023-06-21T05:56:29.445Z,100510.34
2023-06-21T05:58:58.249Z,100506.81
2023-06-21T06:01:28.367Z,100507.94
2023-06-21T06:03:57.510Z,100507.38
2023-06-21T06:06:37.471Z,100497.75
2023-06-21T06:09:07.009Z,100498.25
2023-06-21T06:11:36.592Z,100492.56
2023-06-21T06:14:06.302Z,100498.38
2023-06-21T06:16:36.103Z,100497.47
2023-06-21T06:19:05.241Z,100491.09
2023-06-21T06:21:35.428Z,100484.69
2023-06-21T06:24:05.059Z,100479.00
2023-06-21T06:26:34.178Z,100476.28
2023-06-21T06:29:03.838Z,100476.81
2023-06-21T06:31:33.700Z,100470.31
2023-06-21T06:34:02.533Z,100468.69
2023-06-21T06:36:33.396Z,100473.75
2023-06-21T06:39:02.493Z,100472.47
2023-06-21T06:41:32.589Z,100478.22
2023-06-21T06:44:07.140Z,100483.06
2023-06-21T06:46:37.257Z,100475.22
2023-06-21T06:49:09.750Z,100480.66
2023-06-21T06:51:38.875Z,100469.19
2023-06-21T06:54:08.107Z,100475.16
2023-06-21T06:56:38.179Z,100471.63
2023-06-21T06:59:07.856Z,100468.53
2023-06-21T07:01:39.709Z,100465.06
2023-06-21T07:04:09.571Z,100466.53
2023-06-21T07:06:39.383Z,100455.56
2023-06-21T07:09:10.128Z,100461.91
2023-06-21T07:11:38.977Z,100457.66
2023-06-21T07:14:08.329Z,100456.06
2023-06-21T07:16:37.827Z,100452.84
2023-06-21T07:19:06.716Z,100444.38
2023-06-21T07:21:36.199Z,100450.31
2023-06-21T07:24:05.296Z,100458.84
2023-06-21T07:26:36.128Z,100455.59
2023-06-21T07:29:05.141Z,100457.72
2023-06-21T07:31:36.342Z,100445.50
2023-06-21T07:34:08.659Z,100439.25
2023-06-21T07:36:42.286Z,100441.13
2023-06-21T07:39:10.893Z,100438.69
2023-06-21T07:41:41.353Z,100446.13
2023-06-21T07:44:11.990Z,100441.94
2023-06-21T07:46:41.481Z,100445.97
2023-06-21T07:49:10.174Z,100455.81
2023-06-21T07:51:38.881Z,100448.56
2023-06-21T07:54:11.341Z,100442.84
2023-06-21T07:56:40.858Z,100448.03
2023-06-21T07:59:11.112Z,100447.50
2023-06-21T08:01:45.394Z,100434.91
2023-06-21T08:04:20.093Z,100441.44
2023-06-21T08:06:50.374Z,100433.63
2023-06-21T08:09:20.438Z,100437.56
2023-06-21T08:11:50.287Z,100431.03
2023-06-21T08:14:21.916Z,100433.72
2023-06-21T08:16:50.780Z,100432.69
2023-06-21T08:19:22.385Z,100433.78
2023-06-21T08:21:52.059Z,100439.00
2023-06-21T08:24:21.149Z,100431.31
2023-06-21T08:26:50.605Z,100429.44
2023-06-21T08:29:20.538Z,100444.75
2023-06-21T08:31:50.297Z,100424.81
2023-06-21T08:34:21.922Z,100434.91
2023-06-21T08:36:50.976Z,100434.09
2023-06-21T08:39:20.630Z,100431.16
2023-06-21T08:41:51.247Z,100426.16
2023-06-21T08:44:21.082Z,100442.69
2023-06-21T08:47:02.385Z,100442.09
2023-06-21T08:49:37.070Z,100434.47
2023-06-21T08:52:17.423Z,100441.31
2023-06-21T08:54:59.411Z,100437.34
2023-06-21T08:57:32.214Z,100435.66
2023-06-21T09:00:06.597Z,100439.34
2023-06-21T09:02:36.835Z,100436.66
2023-06-21T09:05:17.700Z,100443.19
2023-06-21T09:07:50.140Z,100432.28
2023-06-21T09:10:23.587Z,100445.38
2023-06-21T09:12:56.280Z,100443.19
2023-06-21T09:15:26.982Z,100441.81
2023-06-21T09:17:58.560Z,100447.63
2023-06-21T09:20:30.890Z,100442.53
2023-06-21T09:23:02.754Z,100448.56
2023-06-21T09:25:32.315Z,100456.22
2023-06-21T09:28:01.434Z,100447.81
2023-06-21T09:30:38.091Z,100453.28
2023-06-21T09:33:08.749Z,100449.50
2023-06-21T09:35:42.191Z,100460.69
2023-06-21T09:38:30.221Z,100460.66
2023-06-21T09:41:00.330Z,100469.97
2023-06-21T09:43:29.825Z,100468.91
2023-06-21T09:46:15.611Z,100462.91
2023-06-21T09:48:50.310Z,100468.91
2023-06-21T09:51:26.963Z,100463.69
2023-06-21T09:53:59.865Z,100475.69
2023-06-21T09:56:38.256Z,100482.84
2023-06-21T09:59:25.463Z,100475.72
2023-06-21T10:01:56.371Z,100487.22
2023-06-21T10:04:35.199Z,100490.22
2023-06-21T10:07:10.041Z,100493.75
2023-06-21T10:09:41.701Z,100496.50
2023-06-21T10:12:12.973Z,100498.66
2023-06-21T10:14:49.736Z,100504.44
2023-06-21T10:17:25.621Z,100500.28
2023-06-21T10:19:57.607Z,100513.19
2023-06-21T10:22:29.673Z,100498.38
2023-06-21T10:25:02.659Z,100496.22
2023-06-21T10:27:36.594Z,100494.88
2023-06-21T10:30:08.682Z,100500.03
2023-06-21T10:32:43.017Z,100488.56
2023-06-21T10:35:28.611Z,100487.47
2023-06-21T10:38:23.176Z,100487.38
2023-06-21T10:41:08.342Z,100488.03
2023-06-21T10:47:35.527Z,100499.50
2023-06-21T10:50:13.095Z,100507.97
2023-06-21T10:52:54.099Z,100509.31
2023-06-21T10:55:26.365Z,100516.38
2023-06-21T10:57:58.170Z,100516.34
2023-06-21T11:00:32.977Z,100514.38
2023-06-21T11:03:02.102Z,100513.91
2023-06-21T11:05:35.441Z,100515.44
2023-06-21T11:08:08.413Z,100508.91
2023-06-21T11:10:55.210Z,100523.06
2023-06-21T11:13:42.228Z,100520.41
2023-06-21T11:16:26.018Z,100524.81
2023-06-21T11:19:07.483Z,100525.31
2023-06-21T11:22:01.316Z,100529.50
2023-06-21T11:24:39.175Z,100523.38
2023-06-21T11:27:30.311Z,100525.00
2023-06-21T11:30:18.123Z,100528.47
2023-06-21T11:32:59.077Z,100533.44
2023-06-21T11:35:52.660Z,100531.34
2023-06-21T11:38:24.080Z,100534.81
2023-06-21T11:40:53.370Z,100534.09
2023-06-21T11:43:29.008Z,100534.22
2023-06-21T11:46:08.557Z,100541.88
2023-06-21T11:48:50.032Z,100541.56
2023-06-21T11:51:32.847Z,100545.13
2023-06-21T11:54:17.160Z,100544.88
2023-06-21T11:57:02.609Z,100548.38
2023-06-21T12:00:01.740Z,100553.56
2023-06-21T12:03:41.489Z,100562.81
2023-06-21T12:06:43.464Z,100559.41
2023-06-21T12:09:30.564Z,100565.66
2023-06-21T12:12:10.327Z,100559.34
2023-06-21T12:14:54.685Z,100570.19
2023-06-21T12:17:58.209Z,100569.91
2023-06-21T12:20:41.958Z,100571.44
2023-06-21T12:23:19.434Z,100574.72
2023-06-21T12:25:53.660Z,100578.00
2023-06-21T12:28:38.543Z,100583.13
2023-06-21T12:31:10.646Z,100592.16
2023-06-21T12:33:44.708Z,100592.16
2023-06-21T12:36:23.909Z,100593.78
2023-06-21T12:39:11.838Z,100596.28
2023-06-21T12:41:53.229Z,100599.28
2023-06-21T12:44:34.026Z,100605.06
2023-06-21T12:47:09.393Z,100600.97
2023-06-21T12:49:59.661Z,100606.31
2023-06-21T12:52:40.830Z,100605.56
2023-06-21T12:55:32.333Z,100596.97
2023-06-21T12:58:11.212Z,100606.06
2023-06-21T13:00:47.269Z,100603.00
2023-06-21T13:03:22.161Z,100604.69
2023-06-21T13:05:51.602Z,100602.44
2023-06-21T13:08:29.363Z,100601.84
2023-06-21T13:11:10.352Z,100608.97
2023-06-21T13:13:39.072Z,100604.22
2023-06-21T13:16:12.847Z,100602.06
2023-06-21T13:18:50.592Z,100601.78
2023-06-21T13:21:30.069Z,100591.91
2023-06-21T13:24:02.505Z,100596.81
2023-06-21T13:26:33.850Z,100599.00
2023-06-21T13:29:05.520Z,100600.84
2023-06-21T13:31:58.838Z,100599.13
2023-06-21T13:34:28.866Z,100604.91
2023-06-21T13:36:59.336Z,100592.84
2023-06-21T13:39:28.971Z,100598.66
2023-06-21T13:42:02.819Z,100592.75
2023-06-21T13:44:33.179Z,100594.66
2023-06-21T13:47:02.017Z,100607.34
2023-06-21T13:49:30.495Z,100606.41
2023-06-21T13:51:58.930Z,100604.41
2023-06-21T13:54:28.067Z,100612.69
2023-06-21T13:57:00.647Z,100605.84
2023-06-21T13:59:29.394Z,100610.81
2023-06-21T14:01:59.475Z,100611.06
2023-06-21T14:04:28.784Z,100607.19
2023-06-21T14:06:57.624Z,100607.22
2023-06-21T14:09:26.180Z,100601.69
2023-06-21T14:11:55.239Z,100609.25
2023-06-21T14:14:29.564Z,100616.88
2023-06-21T14:16:59.023Z,100618.19
2023-06-21T14:19:28.493Z,100617.09
2023-06-21T14:21:56.942Z,100614.63
2023-06-21T14:24:26.044Z,100623.19
2023-06-21T14:26:58.786Z,100616.56
2023-06-21T14:29:28.411Z,100611.66
2023-06-21T14:31:56.990Z,100609.97
2023-06-21T14:34:26.052Z,100617.28
2023-06-21T14:36:55.953Z,100601.94
2023-06-21T14:39:26.388Z,100605.75
2023-06-21T14:41:55.546Z,100611.25
2023-06-21T14:44:24.855Z,100611.78
2023-06-21T14:46:54.931Z,100615.47
2023-06-21T14:49:27.358Z,100618.47
2023-06-21T14:51:56.311Z,100613.78
2023-06-21T14:54:24.848Z,100619.16
2023-06-21T14:56:56.190Z,100626.03
2023-06-21T14:59:25.787Z,100617.13
2023-06-21T15:01:55.104Z,100629.00
2023-06-21T15:04:24.147Z,100617.28
2023-06-21T15:06:53.111Z,100630.94
2023-06-21T15:09:21.655Z,100638.63
2023-06-21T15:11:50.222Z,100638.06
2023-06-21T15:14:21.425Z,100646.03
2023-06-21T15:16:51.408Z,100637.81
2023-06-21T15:19:21.695Z,100639.81
2023-06-21T15:21:50.214Z,100641.72
2023-06-21T15:24:18.693Z,100638.88
2023-06-21T15:26:48.334Z,100638.88
2023-06-21T15:29:21.432Z,100642.28
2023-06-21T15:31:50.222Z,100638.44
2023-06-21T15:34:18.564Z,100636.97
2023-06-21T15:36:49.522Z,100645.78
2023-06-21T15:39:18.108Z,100636.94
2023-06-21T15:41:51.177Z,100645.53
2023-06-21T15:44:20.361Z,100650.56
2023-06-21T15:46:49.820Z,100644.78
2023-06-21T15:49:18.797Z,100651.72
2023-06-21T15:51:49.148Z,100652.28
2023-06-21T15:54:17.859Z,100654.06
2023-06-21T15:56:49.568Z,100658.19
2023-06-21T15:59:18.579Z,100656.44
2023-06-21T16:01:48.450Z,100657.78
2023-06-21T16:04:17.919Z,100660.75
2023-06-21T16:06:50.225Z,100664.63
2023-06-21T16:09:20.942Z,100656.19
2023-06-21T16:11:49.881Z,100655.59
2023-06-21T16:14:18.966Z,100653.25
2023-06-21T16:16:48.179Z,100651.22
2023-06-21T16:19:16.667Z,100659.38
2023-06-21T16:21:47.166Z,100662.94
2023-06-21T16:24:20.998Z,100657.34
2023-06-21T16:26:50.642Z,100657.25
2023-06-21T16:29:19.991Z,100663.44
2023-06-21T16:31:48.926Z,100665.78
2023-06-21T16:34:18.106Z,100665.00
2023-06-21T16:36:49.813Z,100669.97
2023-06-21T16:39:18.785Z,100661.72
2023-06-21T16:41:48.411Z,100665.88
2023-06-21T16:44:17.127Z,100664.22
2023-06-21T16:46:47.090Z,100660.31
2023-06-21T16:49:17.122Z,100649.47
2023-06-21T16:51:49.426Z,100646.31
2023-06-21T16:54:18.074Z,100652.50
2023-06-21T16:56:48.226Z,100645.53
2023-06-21T16:59:17.858Z,100645.53
2023-06-21T17:01:47.483Z,100637.78
2023-06-21T17:04:18.213Z,100634.22
2023-06-21T17:06:48.878Z,100632.06
2023-06-21T17:09:18.425Z,100634.81
2023-06-21T17:11:48.667Z,100617.63
2023-06-21T17:14:18.543Z,100632.91
2023-06-21T17:16:49.315Z,100642.09
2023-06-21T17:19:20.264Z,100645.13
2023-06-21T17:21:48.944Z,100652.97
2023-06-21T17:24:17.964Z,100655.69
2023-06-21T17:26:47.039Z,100655.53
2023-06-21T17:29:18.245Z,100647.59
2023-06-21T17:31:47.506Z,100642.41
2023-06-21T17:34:19.936Z,100642.94
2023-06-21T17:36:49.288Z,100637.19
2023-06-21T17:39:18.605Z,100634.84
2023-06-21T17:41:48.634Z,100635.28
2023-06-21T17:44:17.619Z,100630.34
2023-06-21T17:46:52.995Z,100631.78
2023-06-21T17:49:21.849Z,100611.09
2023-06-21T17:51:50.729Z,100619.53
2023-06-21T17:54:24.195Z,100624.25
2023-06-21T17:56:53.117Z,100627.78
2023-06-21T17:59:22.134Z,100631.06
2023-06-21T18:01:51.088Z,100617.50
2023-06-21T18:04:20.355Z,100621.44
2023-06-21T18:06:48.734Z,100616.91
2023-06-21T18:09:17.286Z,100606.97
2023-06-21T18:11:47.979Z,100604.50
2023-06-21T18:14:18.879Z,100613.81
2023-06-21T18:16:47.294Z,100605.88
2023-06-21T18:19:19.125Z,100604.25
2023-06-21T18:21:48.635Z,100609.13
2023-06-21T18:24:17.677Z,100613.25
2023-06-21T18:26:47.201Z,100609.25
2023-06-21T18:29:19.057Z,100594.47
2023-06-21T18:31:48.549Z,100603.00
2023-06-21T18:34:19.320Z,100589.56
2023-06-21T18:36:48.751Z,100594.69
2023-06-21T18:39:18.054Z,100597.00
2023-06-21T18:41:49.244Z,100592.03
2023-06-21T18:44:18.327Z,100587.91
2023-06-21T18:46:50.348Z,100595.25
2023-06-21T18:49:18.820Z,100585.94
2023-06-21T18:51:48.755Z,100587.53
2023-06-21T18:54:17.820Z,100578.09
2023-06-21T18:56:49.925Z,100583.09
2023-06-21T18:59:25.758Z,100570.19
2023-06-21T19:01:55.004Z,100580.91
2023-06-21T19:04:24.612Z,100569.50
2023-06-21T19:06:53.996Z,100573.50
2023-06-21T19:09:22.591Z,100584.56
2023-06-21T19:11:51.163Z,100583.16
2023-06-21T19:14:22.005Z,100578.47
2023-06-21T19:16:52.283Z,100576.47
2023-06-21T19:19:24.767Z,100563.81
2023-06-21T19:21:54.042Z,100557.53
2023-06-21T19:24:22.837Z,100556.16
2023-06-21T19:26:51.861Z,100560.91
2023-06-21T19:29:21.085Z,100552.91
2023-06-21T19:31:50.694Z,100564.06
2023-06-21T19:34:24.453Z,100572.94
2023-06-21T19:36:52.906Z,100560.09
2023-06-21T19:39:21.588Z,100569.91
2023-06-21T19:41:50.443Z,100571.28
2023-06-21T19:44:22.901Z,100569.13
2023-06-21T19:46:53.820Z,100565.66
2023-06-21T19:49:22.768Z,100567.63
2023-06-21T19:51:51.177Z,100564.63
2023-06-21T19:54:21.222Z,100555.88
2023-06-21T19:56:49.706Z,100565.28
2023-06-21T19:59:18.116Z,100554.19
2023-06-21T20:01:49.765Z,100549.59
2023-06-21T20:04:18.901Z,100540.34
2023-06-21T20:06:48.672Z,100548.53
2023-06-21T20:09:19.076Z,100545.47
2023-06-21T20:11:48.836Z,100540.47
2023-06-21T20:14:19.277Z,100544.50
2023-06-21T20:16:50.809Z,100533.00
2023-06-21T20:19:20.205Z,100529.75
2023-06-21T20:21:49.824Z,100513.69
2023-06-21T20:24:30.009Z,100512.88
2023-06-21T20:27:00.757Z,100509.16
2023-06-21T20:29:29.230Z,100517.34
2023-06-21T20:31:59.064Z,100518.38
2023-06-21T20:34:31.447Z,100514.00
2023-06-21T20:41:04.319Z,100516.66
2023-06-21T20:43:56.472Z,100524.78
2023-06-21T20:46:42.144Z,100529.16
2023-06-21T20:49:37.353Z,100515.47
2023-06-21T20:56:04.416Z,100521.53
2023-06-21T20:58:38.719Z,100517.69
2023-06-21T21:04:39.791Z,100531.16
2023-06-21T21:07:16.294Z,100517.09
2023-06-21T21:09:48.158Z,100517.59
2023-06-21T21:12:21.744Z,100527.94
2023-06-21T21:14:53.587Z,100528.53
2023-06-21T21:17:25.200Z,100510.16
2023-06-21T21:19:57.340Z,100523.75
2023-06-21T21:22:27.332Z,100513.88
2023-06-21T21:24:57.366Z,100514.56
2023-06-21T21:27:30.824Z,100508.66
2023-06-21T21:30:00.455Z,100512.19
2023-06-21T21:32:29.923Z,100514.06
2023-06-21T21:35:00.772Z,100528.69
2023-06-21T21:37:29.473Z,100516.13
2023-06-21T21:40:25.952Z,100526.88
2023-06-21T21:43:08.344Z,100505.03
2023-06-21T21:46:11.180Z,100512.38
2023-06-21T21:48:41.433Z,100507.66
2023-06-21T21:51:10.742Z,100500.50
2023-06-21T21:53:40.039Z,100501.00
2023-06-21T21:56:11.217Z,100503.97
2023-06-21T21:58:41.680Z,100513.53
2023-06-21T22:01:11.165Z,100514.47
2023-06-21T22:03:50.151Z,100509.94
2023-06-21T22:06:55.488Z,100510.41
2023-06-21T22:10:20.625Z,100537.78
2023-06-21T22:13:08.875Z,100519.66
2023-06-21T22:15:59.936Z,100524.13
2023-06-21T22:18:49.674Z,100520.28
2023-06-21T22:21:27.592Z,100522.09
2023-06-21T22:24:13.320Z,100528.78
2023-06-21T22:27:10.437Z,100531.72
2023-06-21T22:30:11.564Z,100536.09
2023-06-21T22:33:01.026Z,100545.44
2023-06-21T22:35:53.789Z,100544.09
2023-06-21T22:38:41.717Z,100549.75
2023-06-21T22:41:38.686Z,100543.28
2023-06-21T22:44:19.272Z,100554.28
2023-06-21T22:46:51.285Z,100548.56
2023-06-21T22:49:24.740Z,100543.66
2023-06-21T22:51:54.530Z,100543.66
2023-06-21T22:54:23.586Z,100554.88
2023-06-21T22:56:54.260Z,100545.47
2023-06-21T22:59:23.401Z,100531.50
2023-06-21T23:01:52.929Z,100551.31
2023-06-21T23:04:22.624Z,100531.97
2023-06-21T23:06:51.326Z,100524.88
2023-06-21T23:09:21.560Z,100528.50
2023-06-21T23:11:50.462Z,100534.91
2023-06-21T23:14:19.636Z,100518.88
2023-06-21T23:16:49.129Z,100522.50
2023-06-21T23:19:20.592Z,100533.31
2023-06-21T23:21:50.659Z,100526.81
2023-06-21T23:24:19.489Z,100542.06
2023-06-21T23:26:50.391Z,100520.69
2023-06-21T23:29:23.360Z,100549.63
2023-06-21T23:31:53.110Z,100532.59
2023-06-21T23:34:22.370Z,100531.75
2023-06-21T23:36:53.158Z,100535.38
2023-06-21T23:39:22.323Z,100537.03
2023-06-21T23:41:51.971Z,100547.47
2023-06-21T23:44:25.021Z,100535.69
2023-06-21T23:46:54.341Z,100537.81
2023-06-21T23:49:22.780Z,100543.25
2023-06-21T23:51:54.334Z,100558.38
2023-06-21T23:54:27.534Z,100546.59
2023-06-21T23:56:56.827Z,100542.66
2023-06-21T23:59:25.106Z,100539.84
